Eko 4 — SVAR8 — position and weather

sailwx.info

Track history (hours):
 
Tides and Currents Weather Stations Pressure Air Temp Water Temp Dewpoint Dewpoint Depression Visibility Wind Speed Wind Dir Waves Ship Positions

Eko 4

Last reported at 2015-Aug-04 05:10 UTC. Time now 2015-Aug-05 04:17 UTC.
Position N 37°54' E 023°06'.

Length 88 m; draft 5.5 m.

Type: Ship (hazmat cat A). MMSI: 240912000.

Date/timePositionNaut miles runAvg speedWind from/ knotsBaromVisibWave heightAir tempDewpointWater temp
2015-Aug-04 05:10N 37°54' E 023°06'9 5.6
2015-Aug-04 03:29N 37°51' E 023°18'9 9.9
2015-Aug-04 02:33N 37°50' E 023°30'9 8.6
2015-Aug-04 01:33N 37°48' E 023°40'13 0.3
2015-Aug-01 22:04N 37°35' E 023°45'5 9.6
2015-Aug-01 21:33N 37°40' E 023°43'10 9.8
2015-Aug-01 20:33N 37°49' E 023°37'24 1.0
2015-Jul-31 19:27N 37°54' E 023°06'9 9.3
2015-Jul-31 18:31N 37°52' E 023°17'1010.1
2015-Jul-31 17:33N 37°50' E 023°29'9 8.8
2015-Jul-31 16:33N 37°49' E 023°40'107 9.7
2015-Jul-31 05:33N 36°46' E 025°30'10 9.7
2015-Jul-31 04:33N 36°44' E 025°42'1010.0
2015-Jul-31 03:33N 36°43' E 025°54'10 9.6
2015-Jul-31 02:33N 36°42' E 026°06'73 2.3
2015-Jul-29 19:33N 36°30' E 027°35'1110.3
2015-Jul-29 18:32N 36°31' E 027°22'1010.4
2015-Jul-29 17:34N 36°32' E 027°10'10 9.7
2015-Jul-29 16:32N 36°36' E 026°58'16 1.2
2015-Jul-29 03:20N 36°51' E 027°03'0 0.0
2015-Jul-28 11:29N 36°51' E 027°03'8 8.9
2015-Jul-28 10:33N 36°50' E 026°53'32 9.7
2015-Jul-28 07:14N 36°46' E 026°13'7 9.9
2015-Jul-28 06:33N 36°45' E 026°05'10 9.7
2015-Jul-28 05:33N 36°43' E 025°53'1010.0
2015-Jul-28 04:33N 36°45' E 025°40'38 9.6
2015-Jul-28 00:33N 36°57' E 024°55'39 9.1
2015-Jul-27 20:15N 37°19' E 024°15'7 9.6
2015-Jul-27 19:32N 37°23' E 024°08'9 9.6
2015-Jul-27 18:33N 37°30' E 023°59'1010.0
2015-Jul-27 17:33N 37°36' E 023°49'9 8.9
2015-Jul-27 16:33N 37°42' E 023°41'9 9.0
2015-Jul-27 15:33N 37°50' E 023°35'10 9.4
2015-Jul-27 14:32N 37°51' E 023°23'13 0.4
2015-Jul-26 09:16N 37°54' E 023°07'10 8.3
2015-Jul-26 08:06N 37°52' E 023°19'5 9.0
2015-Jul-26 07:33N 37°51' E 023°25'9 9.3
2015-Jul-26 06:33N 37°50' E 023°37'39 9.7
2015-Jul-26 02:33N 37°15' E 023°57'49 9.9
2015-Jul-25 21:32N 36°29' E 024°21'29 9.6
2015-Jul-25 18:29N 36°03' E 024°37'31 9.7
2015-Jul-25 15:14N 35°36' E 024°57'8 9.5
2015-Jul-25 14:24N 35°29' E 025°01'  
Track history (hours):
 
Tides and Currents Weather Stations Pressure Air Temp Water Temp Dewpoint Dewpoint Depression Visibility Wind Speed Wind Dir Waves Ship Positions

Eko 4

Last reported at 2015-Aug-04 05:10 UTC. Time now 2015-Aug-05 04:17 UTC.
Position N 37°54' E 023°06'.

Length 88 m; draft 5.5 m.

Type: Ship (hazmat cat A). MMSI: 240912000.

Date/timePositionNaut miles runAvg speedWind from/ knotsBaromVisibWave heightAir tempDewpointWater temp
2015-Aug-04 05:10N 37°54' E 023°06'9 5.6
2015-Aug-04 03:29N 37°51' E 023°18'9 9.9
2015-Aug-04 02:33N 37°50' E 023°30'9 8.6
2015-Aug-04 01:33N 37°48' E 023°40'13 0.3
2015-Aug-01 22:04N 37°35' E 023°45'5 9.6
2015-Aug-01 21:33N 37°40' E 023°43'10 9.8
2015-Aug-01 20:33N 37°49' E 023°37'24 1.0
2015-Jul-31 19:27N 37°54' E 023°06'9 9.3
2015-Jul-31 18:31N 37°52' E 023°17'1010.1
2015-Jul-31 17:33N 37°50' E 023°29'9 8.8
2015-Jul-31 16:33N 37°49' E 023°40'107 9.7
2015-Jul-31 05:33N 36°46' E 025°30'10 9.7
2015-Jul-31 04:33N 36°44' E 025°42'1010.0
2015-Jul-31 03:33N 36°43' E 025°54'10 9.6
2015-Jul-31 02:33N 36°42' E 026°06'73 2.3
2015-Jul-29 19:33N 36°30' E 027°35'1110.3
2015-Jul-29 18:32N 36°31' E 027°22'1010.4
2015-Jul-29 17:34N 36°32' E 027°10'10 9.7
2015-Jul-29 16:32N 36°36' E 026°58'16 1.2
2015-Jul-29 03:20N 36°51' E 027°03'0 0.0
2015-Jul-28 11:29N 36°51' E 027°03'8 8.9
2015-Jul-28 10:33N 36°50' E 026°53'32 9.7
2015-Jul-28 07:14N 36°46' E 026°13'7 9.9
2015-Jul-28 06:33N 36°45' E 026°05'10 9.7
2015-Jul-28 05:33N 36°43' E 025°53'1010.0
2015-Jul-28 04:33N 36°45' E 025°40'38 9.6
2015-Jul-28 00:33N 36°57' E 024°55'39 9.1
2015-Jul-27 20:15N 37°19' E 024°15'7 9.6
2015-Jul-27 19:32N 37°23' E 024°08'9 9.6
2015-Jul-27 18:33N 37°30' E 023°59'1010.0
2015-Jul-27 17:33N 37°36' E 023°49'9 8.9
2015-Jul-27 16:33N 37°42' E 023°41'9 9.0
2015-Jul-27 15:33N 37°50' E 023°35'10 9.4
2015-Jul-27 14:32N 37°51' E 023°23'13 0.4
2015-Jul-26 09:16N 37°54' E 023°07'10 8.3
2015-Jul-26 08:06N 37°52' E 023°19'5 9.0
2015-Jul-26 07:33N 37°51' E 023°25'9 9.3
2015-Jul-26 06:33N 37°50' E 023°37'39 9.7
2015-Jul-26 02:33N 37°15' E 023°57'49 9.9
2015-Jul-25 21:32N 36°29' E 024°21'29 9.6
2015-Jul-25 18:29N 36°03' E 024°37'31 9.7
2015-Jul-25 15:14N 35°36' E 024°57'8 9.5
2015-Jul-25 14:24N 35°29' E 025°01'  

Dump ship's entire track history